createdAt,value
2019-05-15T00:01:15.756Z,100962.03
2019-05-15T00:03:41.958Z,100962.77
2019-05-15T00:06:08.624Z,100964.16
2019-05-15T00:08:35.031Z,100966.33
2019-05-15T00:11:01.234Z,100960.72
2019-05-15T00:13:28.274Z,100959.47
2019-05-15T00:15:54.706Z,100959.63
2019-05-15T00:18:20.966Z,100958.97
2019-05-15T00:20:49.612Z,100954.95
2019-05-15T00:23:15.265Z,100951.50
2019-05-15T00:25:41.577Z,100950.98
2019-05-15T00:28:09.438Z,100948.05
2019-05-15T00:30:38.462Z,100946.89
2019-05-15T00:33:03.884Z,100945.56
2019-05-15T00:35:30.733Z,100948.75
2019-05-15T00:37:58.520Z,100947.72
2019-05-15T00:40:24.845Z,100950.89
2019-05-15T00:42:51.098Z,100946.78
2019-05-15T00:45:18.579Z,100946.52
2019-05-15T00:47:44.973Z,100941.33
2019-05-15T00:50:11.892Z,100941.27
2019-05-15T00:52:39.266Z,100940.23
2019-05-15T00:55:08.638Z,100946.92
2019-05-15T00:57:35.027Z,100942.00
2019-05-15T01:00:01.233Z,100935.41
2019-05-15T01:02:28.662Z,100931.28
2019-05-15T01:04:55.190Z,100931.41
2019-05-15T01:07:21.372Z,100930.09
2019-05-15T01:09:48.711Z,100921.25
2019-05-15T01:12:14.974Z,100920.94
2019-05-15T01:14:41.109Z,100920.45
2019-05-15T01:17:09.089Z,100912.68
2019-05-15T01:19:35.364Z,100915.75
2019-05-15T01:22:01.667Z,100911.22
2019-05-15T01:24:28.308Z,100911.70
2019-05-15T01:26:54.877Z,100906.92
2019-05-15T01:29:21.013Z,100908.23
2019-05-15T01:31:48.672Z,100901.50
2019-05-15T01:34:15.269Z,100903.53
2019-05-15T01:36:41.471Z,100904.53
2019-05-15T01:39:08.112Z,100900.42
2019-05-15T01:41:34.673Z,100903.73
2019-05-15T01:44:01.317Z,100902.41
2019-05-15T01:46:28.621Z,100899.08
2019-05-15T01:48:54.891Z,100899.41
2019-05-15T01:51:21.105Z,100899.73
2019-05-15T01:53:48.065Z,100898.52
2019-05-15T01:56:14.477Z,100895.71
2019-05-15T01:58:40.602Z,100894.70
2019-05-15T02:01:08.200Z,100893.66
2019-05-15T02:03:34.845Z,100891.33
2019-05-15T02:06:01.098Z,100893.56
2019-05-15T02:08:28.486Z,100894.53
2019-05-15T02:10:54.940Z,100892.81
2019-05-15T02:13:21.121Z,100886.44
2019-05-15T02:15:48.319Z,100879.42
2019-05-15T02:18:14.670Z,100879.27
2019-05-15T02:20:40.831Z,100878.17
2019-05-15T02:23:11.543Z,100877.83
2019-05-15T02:25:35.579Z,100875.95
2019-05-15T02:28:01.796Z,100874.41
2019-05-15T02:30:33.353Z,100867.52
2019-05-15T02:32:58.990Z,100869.08
2019-05-15T02:35:24.738Z,100862.35
2019-05-15T02:37:51.274Z,100864.97
2019-05-15T02:40:19.112Z,100865.13
2019-05-15T02:42:45.522Z,100865.41
2019-05-15T02:45:12.534Z,100859.64
2019-05-15T02:47:39.691Z,100852.61
2019-05-15T02:50:10.731Z,100857.30
2019-05-15T02:52:38.838Z,100854.68
2019-05-15T02:55:05.300Z,100857.75
2019-05-15T02:57:31.509Z,100852.72
2019-05-15T02:59:59.403Z,100856.09
2019-05-15T03:02:28.474Z,100853.53
2019-05-15T03:04:54.089Z,100855.06
2019-05-15T03:07:20.295Z,100853.52
2019-05-15T03:09:49.458Z,100854.25
2019-05-15T03:12:14.667Z,100857.05
2019-05-15T03:14:40.804Z,100855.55
2019-05-15T03:17:09.785Z,100851.67
2019-05-15T03:19:35.215Z,100859.54
2019-05-15T03:22:01.458Z,100856.00
2019-05-15T03:24:28.883Z,100858.41
2019-05-15T03:26:55.397Z,100857.42
2019-05-15T03:29:21.612Z,100856.76
2019-05-15T03:32:00.882Z,100857.55
2019-05-15T03:34:23.377Z,100856.38
2019-05-15T03:36:45.770Z,100848.66
2019-05-15T03:39:11.991Z,100854.61
2019-05-15T03:41:39.428Z,100851.89
2019-05-15T03:44:09.175Z,100855.27
2019-05-15T03:46:33.895Z,100849.78
2019-05-15T03:49:00.694Z,100855.70
2019-05-15T03:51:28.978Z,100859.45
2019-05-15T03:53:56.040Z,100863.56
2019-05-15T03:56:22.275Z,100857.42
2019-05-15T03:58:49.340Z,100863.39
2019-05-15T04:01:30.012Z,100864.23
2019-05-15T04:03:44.123Z,100864.73
2019-05-15T04:06:10.459Z,100863.00
2019-05-15T04:08:39.097Z,100856.95
2019-05-15T04:11:05.481Z,100864.43
2019-05-15T04:13:31.679Z,100867.13
2019-05-15T04:15:59.340Z,100866.16
2019-05-15T04:18:29.038Z,100866.81
2019-05-15T04:20:54.939Z,100871.72
2019-05-15T04:23:21.765Z,100868.68
2019-05-15T04:25:50.932Z,100872.69
2019-05-15T04:28:19.641Z,100870.59
2019-05-15T04:30:45.782Z,100875.38
2019-05-15T04:33:11.918Z,100877.05
2019-05-15T04:35:39.994Z,100877.12
2019-05-15T04:38:09.299Z,100873.54
2019-05-15T04:40:35.131Z,100874.20
2019-05-15T04:43:01.267Z,100875.47
2019-05-15T04:45:34.476Z,100877.61
2019-05-15T04:47:58.556Z,100878.88
2019-05-15T04:50:23.613Z,100878.30
2019-05-15T04:52:50.285Z,100879.94
2019-05-15T04:55:19.680Z,100879.18
2019-05-15T04:57:44.930Z,100876.52
2019-05-15T05:00:12.551Z,100878.11
2019-05-15T05:02:39.835Z,100873.88
2019-05-15T05:05:10.150Z,100874.72
2019-05-15T05:07:39.044Z,100871.86
2019-05-15T05:10:04.817Z,100872.60
2019-05-15T05:12:30.969Z,100869.89
2019-05-15T05:14:58.765Z,100873.88
2019-05-15T05:17:25.042Z,100870.99
2019-05-15T05:19:51.513Z,100868.45
2019-05-15T05:22:18.710Z,100875.78
2019-05-15T05:24:45.000Z,100877.37
2019-05-15T05:27:11.159Z,100880.23
2019-05-15T05:29:38.627Z,100877.84
2019-05-15T05:32:04.892Z,100879.94
2019-05-15T05:34:31.097Z,100881.83
2019-05-15T05:36:58.888Z,100886.12
2019-05-15T05:39:25.369Z,100886.53
2019-05-15T05:41:51.843Z,100882.17
2019-05-15T05:44:18.906Z,100884.19
2019-05-15T05:46:45.285Z,100888.48
2019-05-15T05:49:11.460Z,100883.79
2019-05-15T05:51:38.666Z,100885.27
2019-05-15T05:54:05.004Z,100881.27
2019-05-15T05:56:31.199Z,100885.08
2019-05-15T05:58:58.598Z,100881.50
2019-05-15T06:01:24.947Z,100883.34
2019-05-15T06:03:51.960Z,100885.78
2019-05-15T06:06:18.720Z,100883.34
2019-05-15T06:08:44.974Z,100882.36
2019-05-15T06:11:11.273Z,100885.41
2019-05-15T06:13:38.303Z,100888.61
2019-05-15T06:16:04.651Z,100887.01
2019-05-15T06:18:30.846Z,100889.62
2019-05-15T06:20:58.655Z,100889.23
2019-05-15T06:23:26.389Z,100888.53
2019-05-15T06:25:53.259Z,100897.34
2019-05-15T06:28:20.358Z,100894.97
2019-05-15T06:30:48.640Z,100889.59
2019-05-15T06:33:14.981Z,100892.14
2019-05-15T06:35:41.169Z,100895.44
2019-05-15T06:38:08.543Z,100897.02
2019-05-15T06:40:35.061Z,100897.30
2019-05-15T06:43:01.197Z,100899.14
2019-05-15T06:45:28.451Z,100898.16
2019-05-15T06:47:54.862Z,100897.84
2019-05-15T06:50:33.213Z,100898.91
2019-05-15T06:52:59.364Z,100900.80
2019-05-15T06:55:25.561Z,100898.37
2019-05-15T06:57:51.723Z,100896.96
2019-05-15T07:00:19.186Z,100899.70
2019-05-15T07:02:45.478Z,100892.55
2019-05-15T07:05:11.779Z,100895.25
2019-05-15T07:07:38.574Z,100894.08
2019-05-15T07:10:05.969Z,100891.70
2019-05-15T07:12:32.418Z,100889.52
2019-05-15T07:14:58.613Z,100882.62
2019-05-15T07:17:24.780Z,100884.16
2019-05-15T07:19:50.955Z,100881.70
2019-05-15T07:22:18.261Z,100889.67
2019-05-15T07:24:44.722Z,100893.50
2019-05-15T07:27:10.868Z,100881.94
2019-05-15T07:29:38.592Z,100883.33
2019-05-15T07:32:05.115Z,100886.70
2019-05-15T07:34:31.316Z,100885.95
2019-05-15T07:36:59.176Z,100882.16
2019-05-15T07:39:25.544Z,100877.05
2019-05-15T07:41:51.683Z,100874.74
2019-05-15T07:44:18.876Z,100884.51
2019-05-15T07:46:45.638Z,100888.47
2019-05-15T07:49:12.187Z,100884.16
2019-05-15T07:51:38.424Z,100885.06
2019-05-15T07:54:04.561Z,100883.69
2019-05-15T07:56:30.780Z,100884.93
2019-05-15T07:58:58.646Z,100887.20
2019-05-15T08:01:25.021Z,100885.67
2019-05-15T08:03:59.178Z,100877.66
2019-05-15T08:06:19.275Z,100882.78
2019-05-15T08:08:45.414Z,100880.63
2019-05-15T08:11:20.185Z,100881.17
2019-05-15T08:13:39.647Z,100880.08
2019-05-15T08:16:05.851Z,100884.80
2019-05-15T08:18:31.977Z,100879.84
2019-05-15T08:20:58.755Z,100872.73
2019-05-15T08:23:25.036Z,100882.39
2019-05-15T08:25:51.233Z,100878.53
2019-05-15T08:28:19.104Z,100881.73
2019-05-15T08:30:45.544Z,100878.45
2019-05-15T08:33:11.906Z,100881.80
2019-05-15T08:35:38.702Z,100881.35
2019-05-15T08:38:04.985Z,100882.36
2019-05-15T08:40:31.187Z,100882.41
2019-05-15T08:43:01.913Z,100875.82
2019-05-15T08:45:28.264Z,100876.06
2019-05-15T08:47:54.922Z,100877.80
2019-05-15T08:50:21.153Z,100879.39
2019-05-15T08:52:48.693Z,100881.95
2019-05-15T08:55:15.293Z,100881.52
2019-05-15T08:57:41.504Z,100884.48
2019-05-15T09:00:09.980Z,100867.16
2019-05-15T09:02:38.246Z,100870.47
2019-05-15T09:05:08.469Z,100874.69
2019-05-15T09:07:38.161Z,100876.48
2019-05-15T09:10:09.005Z,100875.34
2019-05-15T09:12:35.489Z,100876.73
2019-05-15T09:15:04.545Z,100878.14
2019-05-15T09:17:30.745Z,100875.99
2019-05-15T09:19:58.791Z,100868.48
2019-05-15T09:22:25.081Z,100866.27
2019-05-15T09:24:51.215Z,100863.41
2019-05-15T09:27:18.463Z,100860.13
2019-05-15T09:29:44.787Z,100860.20
2019-05-15T09:32:12.622Z,100857.16
2019-05-15T09:34:50.498Z,100858.73
2019-05-15T09:37:08.574Z,100856.34
2019-05-15T09:39:35.123Z,100862.28
2019-05-15T09:42:01.321Z,100855.70
2019-05-15T09:44:28.321Z,100856.12
2019-05-15T09:46:54.789Z,100854.85
2019-05-15T09:49:21.186Z,100857.13
2019-05-15T09:51:49.018Z,100843.47
2019-05-15T09:54:15.490Z,100851.89
2019-05-15T09:56:41.695Z,100849.19
2019-05-15T09:59:08.819Z,100840.61
2019-05-15T10:01:35.471Z,100837.14
2019-05-15T10:04:01.642Z,100833.84
2019-05-15T10:06:28.652Z,100834.72
2019-05-15T10:08:54.975Z,100833.73
2019-05-15T10:11:21.145Z,100835.88
2019-05-15T10:13:47.341Z,100831.54
2019-05-15T10:16:13.493Z,100830.13
2019-05-15T10:18:39.699Z,100831.91
2019-05-15T10:21:08.734Z,100827.80
2019-05-15T10:23:34.477Z,100827.30
2019-05-15T10:26:00.620Z,100822.52
2019-05-15T10:28:29.262Z,100820.62
2019-05-15T10:30:54.883Z,100822.17
2019-05-15T10:33:21.100Z,100819.20
2019-05-15T10:35:47.347Z,100820.86
2019-05-15T10:38:13.528Z,100823.67
2019-05-15T10:40:58.186Z,100822.02
2019-05-15T10:43:09.153Z,100822.70
2019-05-15T10:45:35.724Z,100816.75
2019-05-15T10:48:02.278Z,100821.62
2019-05-15T10:50:28.612Z,100810.48
2019-05-15T10:52:54.945Z,100811.48
2019-05-15T10:55:21.072Z,100809.80
2019-05-15T10:57:47.319Z,100810.05
2019-05-15T11:00:14.166Z,100809.34
2019-05-15T11:02:40.377Z,100810.59
2019-05-15T11:05:09.572Z,100802.38
2019-05-15T11:07:39.428Z,100802.06
2019-05-15T11:10:08.445Z,100798.38
2019-05-15T11:12:34.359Z,100798.95
2019-05-15T11:15:00.514Z,100797.68
2019-05-15T11:17:28.656Z,100793.30
2019-05-15T11:19:55.078Z,100787.06
2019-05-15T11:22:21.256Z,100782.97
2019-05-15T11:24:49.764Z,100788.64
2019-05-15T11:27:15.660Z,100786.41
2019-05-15T11:29:41.856Z,100782.35
2019-05-15T11:32:08.837Z,100783.72
2019-05-15T11:34:35.208Z,100783.16
2019-05-15T11:37:01.346Z,100784.11
2019-05-15T11:39:28.842Z,100785.83
2019-05-15T11:41:55.120Z,100783.92
2019-05-15T11:44:22.708Z,100781.59
2019-05-15T11:46:49.552Z,100778.05
2019-05-15T11:49:18.219Z,100780.73
2019-05-15T11:51:44.313Z,100780.91
2019-05-15T11:54:15.677Z,100782.22
2019-05-15T11:56:41.793Z,100780.34
2019-05-15T11:59:12.443Z,100783.91
2019-05-15T12:01:38.585Z,100778.45
2019-05-15T12:04:25.394Z,100780.80
2019-05-15T12:06:39.494Z,100776.84
2019-05-15T12:09:08.925Z,100776.79
2019-05-15T12:11:37.270Z,100778.11
2019-05-15T12:14:02.914Z,100777.77
2019-05-15T12:16:29.222Z,100773.82
2019-05-15T12:18:55.442Z,100775.53
2019-05-15T12:21:21.606Z,100774.11
2019-05-15T12:23:48.759Z,100773.27
2019-05-15T12:26:15.581Z,100770.91
2019-05-15T12:28:41.714Z,100772.41
2019-05-15T12:31:09.010Z,100766.55
2019-05-15T12:33:35.389Z,100766.08
2019-05-15T12:36:01.693Z,100763.77
2019-05-15T12:38:28.916Z,100758.47
2019-05-15T13:00:40.540Z,100746.30
2019-05-15T13:03:09.127Z,100748.33
2019-05-15T13:05:35.736Z,100746.02
2019-05-15T13:08:01.974Z,100740.91
2019-05-15T13:10:28.768Z,100738.37
2019-05-15T13:13:01.345Z,100736.72
2019-05-15T13:15:23.224Z,100738.75
2019-05-15T13:17:52.811Z,100733.63
2019-05-15T13:20:18.463Z,100733.26
2019-05-15T13:22:44.866Z,100730.94
2019-05-15T13:25:11.113Z,100726.64
2019-05-15T13:27:38.170Z,100727.02
2019-05-15T13:30:09.026Z,100722.43
2019-05-15T13:32:35.509Z,100719.85
2019-05-15T13:35:01.867Z,100719.25
2019-05-15T13:37:30.740Z,100719.16
2019-05-15T13:39:58.521Z,100717.67
2019-05-15T13:42:24.227Z,100718.97
2019-05-15T13:44:50.429Z,100715.24
2019-05-15T13:47:17.808Z,100710.12
2019-05-15T13:49:44.035Z,100707.25
2019-05-15T13:52:10.233Z,100703.58
2019-05-15T13:54:37.931Z,100695.33
2019-05-15T13:57:04.394Z,100691.81
2019-05-15T13:59:30.541Z,100688.27
2019-05-15T14:01:59.408Z,100685.94
2019-05-15T14:04:24.833Z,100688.36
2019-05-15T14:06:51.060Z,100689.83
2019-05-15T14:09:17.207Z,100690.25
2019-05-15T14:11:43.424Z,100688.66
2019-05-15T14:14:09.561Z,100691.87
2019-05-15T14:16:38.197Z,100692.27
2019-05-15T14:19:03.939Z,100690.52
2019-05-15T14:21:30.161Z,100694.22
2019-05-15T14:23:58.860Z,100687.83
2019-05-15T14:26:24.465Z,100683.34
2019-05-15T14:28:50.901Z,100682.87
2019-05-15T14:31:18.278Z,100679.30
2019-05-15T14:33:44.765Z,100678.38
2019-05-15T14:36:10.907Z,100671.83
2019-05-15T14:38:37.889Z,100664.89
2019-05-15T14:41:05.090Z,100663.91
2019-05-15T14:43:31.297Z,100663.03
2019-05-15T14:45:58.683Z,100656.48
2019-05-15T14:48:25.128Z,100657.89
2019-05-15T14:50:51.292Z,100657.41
2019-05-15T14:53:18.655Z,100654.66
2019-05-15T14:55:45.036Z,100658.30
2019-05-15T14:58:11.235Z,100658.30
2019-05-15T15:00:41.166Z,100661.00
2019-05-15T15:03:05.505Z,100653.85
2019-05-15T15:05:31.634Z,100656.98
2019-05-15T15:07:58.608Z,100656.80
2019-05-15T15:10:24.900Z,100649.70
2019-05-15T15:12:51.120Z,100657.15
2019-05-15T15:15:18.088Z,100649.04
2019-05-15T15:17:44.384Z,100651.63
2019-05-15T15:20:11.030Z,100649.81
2019-05-15T15:22:39.425Z,100644.91
2019-05-15T15:25:06.217Z,100642.33
2019-05-15T15:27:32.419Z,100644.81
2019-05-15T15:29:58.562Z,100639.30
2019-05-15T15:32:24.734Z,100637.17
2019-05-15T15:34:50.935Z,100641.03
2019-05-15T15:37:17.074Z,100642.03
2019-05-15T15:39:43.308Z,100637.34
2019-05-15T15:42:09.768Z,100638.13
2019-05-15T15:44:38.037Z,100631.28
2019-05-15T15:47:04.200Z,100625.95
2019-05-15T15:49:30.406Z,100624.63
2019-05-15T15:51:58.134Z,100621.87
2019-05-15T15:54:24.522Z,100619.61
2019-05-15T15:56:50.669Z,100614.23
2019-05-15T15:59:18.157Z,100610.64
2019-05-15T16:01:44.927Z,100613.13
2019-05-15T16:04:11.147Z,100608.05
2019-05-15T16:06:38.746Z,100607.24
2019-05-15T16:09:08.502Z,100605.81
2019-05-15T16:11:34.641Z,100605.91
2019-05-15T16:14:03.003Z,100606.31
2019-05-15T16:16:29.156Z,100604.38
2019-05-15T16:18:55.396Z,100605.43
2019-05-15T16:21:21.621Z,100605.83
2019-05-15T16:23:48.108Z,100602.75
2019-05-15T16:26:14.381Z,100606.27
2019-05-15T16:28:40.615Z,100601.81
2019-05-15T16:31:07.939Z,100596.19
2019-05-15T16:33:34.352Z,100595.75
2019-05-15T16:36:00.614Z,100594.53
2019-05-15T16:38:28.364Z,100588.47
2019-05-15T16:40:54.780Z,100590.29
2019-05-15T16:43:20.941Z,100594.16
2019-05-15T16:45:49.637Z,100588.86
2019-05-15T16:48:15.289Z,100589.85
2019-05-15T16:50:41.499Z,100591.29
2019-05-15T16:53:09.164Z,100591.44
2019-05-15T16:55:37.747Z,100586.15
2019-05-15T16:58:03.771Z,100585.94
2019-05-15T17:00:31.280Z,100583.95
2019-05-15T17:03:09.136Z,100582.30
2019-05-15T17:05:25.957Z,100584.27
2019-05-15T17:07:52.351Z,100582.45
2019-05-15T17:10:18.858Z,100588.25
2019-05-15T17:12:49.072Z,100586.09
2019-05-15T17:15:15.527Z,100586.53
2019-05-15T17:17:41.662Z,100582.35
2019-05-15T17:20:09.766Z,100583.82
2019-05-15T17:22:38.106Z,100582.73
2019-05-15T17:25:04.714Z,100582.00
2019-05-15T17:27:30.876Z,100583.11
2019-05-15T17:29:58.405Z,100584.27
2019-05-15T17:32:24.828Z,100581.46
2019-05-15T17:34:51.041Z,100581.12
2019-05-15T17:37:18.234Z,100575.28
2019-05-15T17:39:44.856Z,100581.52
2019-05-15T17:42:11.258Z,100579.52
2019-05-15T17:44:38.160Z,100575.31
2019-05-15T17:47:04.844Z,100573.06
2019-05-15T17:49:31.066Z,100577.02
2019-05-15T17:51:58.173Z,100572.02
2019-05-15T17:54:25.015Z,100566.49
2019-05-15T17:56:51.433Z,100565.33
2019-05-15T17:59:18.194Z,100567.09
2019-05-15T18:01:44.626Z,100569.17
2019-05-15T18:04:10.746Z,100566.15
2019-05-15T18:06:39.347Z,100561.14
2019-05-15T18:09:08.530Z,100566.87
2019-05-15T18:11:33.948Z,100563.01
2019-05-15T18:14:00.111Z,100555.02
2019-05-15T18:16:26.348Z,100557.86
2019-05-15T18:18:52.485Z,100552.58
2019-05-15T18:21:19.759Z,100551.59
2019-05-15T18:23:48.660Z,100552.59
2019-05-15T18:26:14.374Z,100543.82
2019-05-15T18:28:40.513Z,100547.34
2019-05-15T18:31:08.745Z,100544.38
2019-05-15T18:33:34.798Z,100544.49
2019-05-15T18:36:01.017Z,100542.48
2019-05-15T18:38:28.199Z,100542.94
2019-05-15T18:40:54.827Z,100541.94
2019-05-15T18:43:21.003Z,100540.56
2019-05-15T18:45:47.735Z,100540.68
2019-05-15T18:48:14.258Z,100540.95
2019-05-15T18:50:40.456Z,100545.08
2019-05-15T18:53:08.920Z,100545.58
2019-05-15T18:55:34.706Z,100540.12
2019-05-15T18:58:01.215Z,100543.91
2019-05-15T19:00:29.526Z,100542.75
2019-05-15T19:02:55.795Z,100541.09
2019-05-15T19:05:21.945Z,100538.56
2019-05-15T19:07:48.671Z,100535.27
2019-05-15T19:10:18.862Z,100533.47
2019-05-15T19:12:45.445Z,100532.47
2019-05-15T19:15:12.301Z,100533.62
2019-05-15T19:17:39.078Z,100533.62
2019-05-15T19:20:08.414Z,100531.75
2019-05-15T19:22:34.830Z,100533.06
2019-05-15T19:25:01.074Z,100531.03
2019-05-15T19:27:28.135Z,100528.31
2019-05-15T19:29:54.418Z,100529.03
2019-05-15T19:32:20.638Z,100525.55
2019-05-15T19:34:48.361Z,100527.20
2019-05-15T19:37:14.758Z,100521.73
2019-05-15T19:39:41.452Z,100520.38
2019-05-15T19:42:08.868Z,100519.31
2019-05-15T19:44:37.480Z,100522.95
2019-05-15T19:47:03.439Z,100521.58
2019-05-15T19:49:29.724Z,100517.12
2019-05-15T19:51:57.945Z,100518.16
2019-05-15T19:54:24.010Z,100515.84
2019-05-15T19:56:50.494Z,100512.66
2019-05-15T19:59:21.875Z,100514.73
2019-05-15T20:01:45.013Z,100513.52
2019-05-15T20:04:11.529Z,100519.95
2019-05-15T20:06:38.717Z,100517.92
2019-05-15T20:09:07.616Z,100517.42
2019-05-15T20:11:33.633Z,100508.67
2019-05-15T20:13:59.851Z,100507.19
2019-05-15T20:16:28.431Z,100503.55
2019-05-15T20:18:54.424Z,100500.78
2019-05-15T20:21:20.572Z,100498.80
2019-05-15T20:23:48.731Z,100497.44
2019-05-15T20:26:14.849Z,100490.25
2019-05-15T20:28:41.072Z,100489.38
2019-05-15T20:31:07.964Z,100483.20
2019-05-15T20:33:34.828Z,100479.39
2019-05-15T20:36:01.013Z,100479.72
2019-05-15T20:38:28.596Z,100479.73
2019-05-15T20:40:55.306Z,100478.24
2019-05-15T20:43:21.519Z,100473.78
2019-05-15T20:45:48.394Z,100471.75
2019-05-15T20:48:15.042Z,100469.10
2019-05-15T20:50:41.185Z,100468.81
2019-05-15T20:53:07.412Z,100468.16
2019-05-15T20:55:33.629Z,100465.80
2019-05-15T20:58:00.076Z,100464.19
2019-05-15T21:00:26.291Z,100457.37
2019-05-15T21:02:52.767Z,100456.20
2019-05-15T21:05:18.955Z,100449.38
2019-05-15T21:07:45.160Z,100447.08
2019-05-15T21:10:12.479Z,100444.20
2019-05-15T21:12:40.948Z,100440.41
2019-05-15T21:15:08.666Z,100436.27
2019-05-15T21:17:34.889Z,100433.45
2019-05-15T21:20:01.592Z,100432.30
2019-05-15T21:22:28.438Z,100433.63
2019-05-15T21:24:54.780Z,100428.95
2019-05-15T21:27:23.944Z,100428.66
2019-05-15T21:29:49.134Z,100423.55
2019-05-15T21:32:15.955Z,100420.69
2019-05-15T21:34:44.420Z,100424.66
2019-05-15T21:37:10.493Z,100421.68
2019-05-15T21:39:38.656Z,100414.03
2019-05-15T21:42:04.812Z,100412.75
2019-05-15T21:44:31.283Z,100410.11
2019-05-15T21:46:58.746Z,100408.84
2019-05-15T21:49:25.108Z,100412.33
2019-05-15T21:51:51.258Z,100409.86
2019-05-15T21:54:18.025Z,100411.22
2019-05-15T21:56:44.321Z,100408.53
2019-05-15T21:59:10.455Z,100409.23
2019-05-15T22:01:39.482Z,100406.92
2019-05-15T22:04:05.100Z,100402.47
2019-05-15T22:06:32.254Z,100405.44
2019-05-15T22:08:58.464Z,100399.49
2019-05-15T22:11:24.805Z,100394.98
2019-05-15T22:13:51.266Z,100393.00
2019-05-15T22:16:18.531Z,100393.01
2019-05-15T22:18:47.720Z,100388.21
2019-05-15T22:21:13.506Z,100386.73
2019-05-15T22:23:39.644Z,100382.27
2019-05-15T22:26:05.857Z,100377.46
2019-05-15T22:28:31.990Z,100373.83
2019-05-15T22:30:58.556Z,100375.48
2019-05-15T22:33:25.143Z,100359.91
2019-05-15T22:35:51.330Z,100363.44
2019-05-15T22:38:18.065Z,100356.83
2019-05-15T22:40:44.655Z,100358.53
2019-05-15T22:43:10.911Z,100358.55
2019-05-15T22:45:37.717Z,100356.94
2019-05-15T22:48:04.046Z,100356.73
2019-05-15T22:50:30.188Z,100355.58
2019-05-15T22:52:58.636Z,100354.08
2019-05-15T22:55:24.436Z,100344.00
2019-05-15T22:57:50.642Z,100347.64
2019-05-15T23:00:17.593Z,100340.86
2019-05-15T23:02:44.734Z,100339.44
2019-05-15T23:05:23.934Z,100336.95
2019-05-15T23:07:39.209Z,100331.02
2019-05-15T23:10:08.710Z,100337.00
2019-05-15T23:12:35.026Z,100334.16
2019-05-15T23:15:01.879Z,100332.83
2019-05-15T23:17:28.093Z,100332.34
2019-05-15T23:19:54.290Z,100331.23
2019-05-15T23:22:21.402Z,100325.61
2019-05-15T23:24:47.964Z,100320.45
2019-05-15T23:27:14.640Z,100315.31
2019-05-15T23:29:41.015Z,100317.13
2019-05-15T23:32:28.933Z,100318.45
2019-05-15T23:34:55.151Z,100305.70
2019-05-15T23:37:21.635Z,100307.38
2019-05-15T23:39:48.687Z,100300.57
2019-05-15T23:42:14.989Z,100300.34
2019-05-15T23:44:41.140Z,100304.84
2019-05-15T23:47:07.427Z,100299.52
2019-05-15T23:49:33.545Z,100301.50
2019-05-15T23:51:59.759Z,100296.49
2019-05-15T23:54:27.958Z,100292.81
2019-05-15T23:56:54.299Z,100287.84
2019-05-15T23:59:20.676Z,100285.64
